createdAt,value
2023-02-19T00:00:31.987Z,9.63
2023-02-19T00:01:31.991Z,9.61
2023-02-19T00:02:31.948Z,9.61
2023-02-19T00:03:31.966Z,9.61
2023-02-19T00:04:31.924Z,9.60
2023-02-19T00:05:31.916Z,9.60
2023-02-19T00:06:31.925Z,9.57
2023-02-19T00:07:31.896Z,9.57
2023-02-19T00:08:31.893Z,9.57
2023-02-19T00:09:31.848Z,9.56
2023-02-19T00:10:31.873Z,9.56
2023-02-19T00:11:31.836Z,9.53
2023-02-19T00:12:31.827Z,9.52
2023-02-19T00:13:31.796Z,9.52
2023-02-19T00:14:31.789Z,9.50
2023-02-19T00:15:31.834Z,9.49
2023-02-19T00:16:31.771Z,9.48
2023-02-19T00:17:31.766Z,9.46
2023-02-19T00:18:31.738Z,9.46
2023-02-19T00:19:31.716Z,9.45
2023-02-19T00:20:31.725Z,9.43
2023-02-19T00:21:31.707Z,9.45
2023-02-19T00:22:31.696Z,9.45
2023-02-19T00:23:31.670Z,9.42
2023-02-19T00:24:31.647Z,9.42
2023-02-19T00:25:31.650Z,9.42
2023-02-19T00:26:31.649Z,9.39
2023-02-19T00:27:31.597Z,9.40
2023-02-19T00:28:31.607Z,9.40
2023-02-19T00:29:31.596Z,9.40
2023-02-19T00:30:31.643Z,9.39
2023-02-19T00:31:32.978Z,9.39
2023-02-19T00:32:31.560Z,9.38
2023-02-19T00:33:31.532Z,9.38
2023-02-19T00:34:31.520Z,9.38
2023-02-19T00:35:31.516Z,9.35
2023-02-19T00:36:31.521Z,9.34
2023-02-19T00:37:31.492Z,9.35
2023-02-19T00:38:31.474Z,9.35
2023-02-19T00:39:31.454Z,9.35
2023-02-19T00:40:31.469Z,9.38
2023-02-19T00:41:31.425Z,9.32
2023-02-19T00:42:31.445Z,9.27
2023-02-19T00:43:31.417Z,9.25
2023-02-19T00:44:31.393Z,9.20
2023-02-19T00:45:31.373Z,9.18
2023-02-19T00:46:31.408Z,9.16
2023-02-19T00:47:31.366Z,9.13
2023-02-19T00:48:31.333Z,9.09
2023-02-19T00:49:31.329Z,9.09
2023-02-19T00:50:31.328Z,9.12
2023-02-19T00:51:31.293Z,9.06
2023-02-19T00:52:31.308Z,9.02
2023-02-19T00:53:31.265Z,8.99
2023-02-19T00:54:31.267Z,8.94
2023-02-19T00:55:31.279Z,8.93
2023-02-19T00:56:31.271Z,8.93
2023-02-19T00:57:31.222Z,8.93
2023-02-19T00:58:31.211Z,8.93
2023-02-19T00:59:31.203Z,8.96
2023-02-19T01:00:31.214Z,8.96
2023-02-19T01:01:31.189Z,8.96
2023-02-19T01:02:31.145Z,8.97
2023-02-19T01:03:31.168Z,8.97
2023-02-19T01:04:31.136Z,8.97
2023-02-19T01:05:31.116Z,8.96
2023-02-19T01:06:31.093Z,8.93
2023-02-19T01:07:31.083Z,8.90
2023-02-19T01:08:31.069Z,8.87
2023-02-19T01:09:31.042Z,8.87
2023-02-19T01:10:31.060Z,8.86
2023-02-19T01:11:31.024Z,8.84
2023-02-19T01:12:31.012Z,8.81
2023-02-19T01:13:31.011Z,8.83
2023-02-19T01:14:30.993Z,8.84
2023-02-19T01:15:30.992Z,8.84
2023-02-19T01:16:31.017Z,8.84
2023-02-19T01:17:30.963Z,8.84
2023-02-19T01:18:30.955Z,8.84
2023-02-19T01:19:30.922Z,8.84
2023-02-19T01:20:31.056Z,8.83
2023-02-19T01:21:30.891Z,8.83
2023-02-19T01:22:30.883Z,8.83
2023-02-19T01:23:30.861Z,8.83
2023-02-19T01:24:30.873Z,8.84
2023-02-19T01:25:30.859Z,8.83
2023-02-19T01:26:30.835Z,8.84
2023-02-19T01:27:30.829Z,8.83
2023-02-19T01:28:30.812Z,8.83
2023-02-19T01:29:30.781Z,8.83
2023-02-19T01:30:30.844Z,8.83
2023-02-19T01:31:30.968Z,8.83
2023-02-19T01:32:30.761Z,8.84
2023-02-19T01:33:30.805Z,8.83
2023-02-19T01:34:30.723Z,8.83
2023-02-19T01:35:30.731Z,8.84
2023-02-19T01:36:30.701Z,8.84
2023-02-19T01:37:30.693Z,8.86
2023-02-19T01:38:30.674Z,8.84
2023-02-19T01:39:30.653Z,8.86
2023-02-19T01:40:30.668Z,8.84
2023-02-19T01:41:30.634Z,8.81
2023-02-19T01:42:30.653Z,8.83
2023-02-19T01:43:30.604Z,8.84
2023-02-19T01:44:30.588Z,8.84
2023-02-19T01:45:30.578Z,8.84
2023-02-19T01:46:30.620Z,8.83
2023-02-19T01:47:30.558Z,8.83
2023-02-19T01:48:30.551Z,8.84
2023-02-19T01:49:30.529Z,8.86
2023-02-19T01:50:30.507Z,8.84
2023-02-19T01:51:30.505Z,8.84
2023-02-19T01:52:30.495Z,8.84
2023-02-19T01:53:30.468Z,8.84
2023-02-19T01:54:30.478Z,8.86
2023-02-19T01:55:30.449Z,8.87
2023-02-19T01:56:30.460Z,8.81
2023-02-19T01:57:30.431Z,8.81
2023-02-19T01:58:30.404Z,8.81
2023-02-19T01:59:30.394Z,8.81
2023-02-19T02:00:30.410Z,8.79
2023-02-19T02:01:30.404Z,8.79
2023-02-19T02:02:30.370Z,8.81
2023-02-19T02:03:30.348Z,8.81
2023-02-19T02:04:30.339Z,8.81
2023-02-19T02:05:30.311Z,8.81
2023-02-19T02:06:30.331Z,8.79
2023-02-19T02:07:30.302Z,8.81
2023-02-19T02:08:30.268Z,8.81
2023-02-19T02:09:30.256Z,8.81
2023-02-19T02:10:30.260Z,8.76
2023-02-19T02:11:30.243Z,8.76
2023-02-19T02:12:30.228Z,8.75
2023-02-19T02:13:30.212Z,8.78
2023-02-19T02:14:30.193Z,8.76
2023-02-19T02:15:30.201Z,8.76
2023-02-19T02:16:30.226Z,8.76
2023-02-19T02:17:30.164Z,8.78
2023-02-19T02:18:30.142Z,8.75
2023-02-19T02:19:30.173Z,8.72
2023-02-19T02:20:30.133Z,8.73
2023-02-19T02:21:30.111Z,8.75
2023-02-19T02:22:30.086Z,8.73
2023-02-19T02:23:30.137Z,8.72
2023-02-19T02:24:30.071Z,8.73
2023-02-19T02:25:30.061Z,8.75
2023-02-19T02:26:30.054Z,8.75
2023-02-19T02:27:30.022Z,8.76
2023-02-19T02:28:30.041Z,8.76
2023-02-19T02:29:30.018Z,8.75
2023-02-19T02:30:30.071Z,8.75
2023-02-19T02:31:30.014Z,8.73
2023-02-19T02:32:29.964Z,8.71
2023-02-19T02:33:29.946Z,8.71
2023-02-19T02:34:29.948Z,8.72
2023-02-19T02:35:29.950Z,8.72
2023-02-19T02:36:29.916Z,8.72
2023-02-19T02:37:29.917Z,8.73
2023-02-19T02:38:29.900Z,8.75
2023-02-19T02:39:29.867Z,8.75
2023-02-19T02:40:29.882Z,8.75
2023-02-19T02:41:29.850Z,8.73
2023-02-19T02:42:29.830Z,8.75
2023-02-19T02:43:29.809Z,8.78
2023-02-19T02:44:29.818Z,8.76
2023-02-19T02:45:29.822Z,8.78
2023-02-19T02:46:29.810Z,8.78
2023-02-19T02:47:29.766Z,8.78
2023-02-19T02:48:29.761Z,8.79
2023-02-19T02:49:29.736Z,8.78
2023-02-19T02:50:29.729Z,8.78
2023-02-19T02:51:29.727Z,8.76
2023-02-19T02:52:29.687Z,8.76
2023-02-19T02:53:29.681Z,8.78
2023-02-19T02:54:29.684Z,8.76
2023-02-19T02:55:29.658Z,8.75
2023-02-19T02:56:29.657Z,8.73
2023-02-19T02:57:29.627Z,8.73
2023-02-19T02:58:29.607Z,8.72
2023-02-19T02:59:29.602Z,8.72
2023-02-19T03:00:29.612Z,8.73
2023-02-19T03:01:29.578Z,8.75
2023-02-19T03:02:29.592Z,8.76
2023-02-19T03:03:29.540Z,8.78
2023-02-19T03:04:29.528Z,8.78
2023-02-19T03:05:29.541Z,8.79
2023-02-19T03:06:29.512Z,8.81
2023-02-19T03:07:29.499Z,8.83
2023-02-19T03:08:29.485Z,8.83
2023-02-19T03:09:29.461Z,8.83
2023-02-19T03:10:29.450Z,8.84
2023-02-19T03:11:29.478Z,8.84
2023-02-19T03:12:29.411Z,8.84
2023-02-19T03:13:29.423Z,8.84
2023-02-19T03:14:29.413Z,8.84
2023-02-19T03:15:29.397Z,8.86
2023-02-19T03:16:29.411Z,8.84
2023-02-19T03:17:29.361Z,8.84
2023-02-19T03:18:29.350Z,8.86
2023-02-19T03:19:29.330Z,8.86
2023-02-19T03:20:29.320Z,8.87
2023-02-19T03:21:29.347Z,8.88
2023-02-19T03:22:29.307Z,8.87
2023-02-19T03:23:29.285Z,8.88
2023-02-19T03:24:29.270Z,8.88
2023-02-19T03:25:29.250Z,8.90
2023-02-19T03:26:29.242Z,8.90
2023-02-19T03:27:29.227Z,8.91
2023-02-19T03:28:29.196Z,8.91
2023-02-19T03:29:29.188Z,8.91
2023-02-19T03:30:29.262Z,8.91
2023-02-19T03:31:29.284Z,8.93
2023-02-19T03:32:29.148Z,8.93
2023-02-19T03:33:29.137Z,8.93
2023-02-19T03:34:29.121Z,8.93
2023-02-19T03:35:29.119Z,8.93
2023-02-19T03:36:29.108Z,8.96
2023-02-19T03:37:29.082Z,8.94
2023-02-19T03:38:29.058Z,8.94
2023-02-19T03:39:29.073Z,8.94
2023-02-19T03:40:29.048Z,8.93
2023-02-19T03:41:29.049Z,8.93
2023-02-19T03:42:29.010Z,8.94
2023-02-19T03:43:28.998Z,8.94
2023-02-19T03:44:28.998Z,8.97
2023-02-19T03:45:28.991Z,8.97
2023-02-19T03:46:28.977Z,8.96
2023-02-19T03:47:28.979Z,8.99
2023-02-19T03:48:28.935Z,8.97
2023-02-19T03:49:28.931Z,8.97
2023-02-19T04:03:11.416Z,8.96
2023-02-19T04:04:11.398Z,8.96
2023-02-19T04:05:14.037Z,8.94
2023-02-19T04:06:11.392Z,8.94
2023-02-19T04:07:11.359Z,8.94
2023-02-19T04:08:11.351Z,8.93
2023-02-19T04:09:11.340Z,8.93
2023-02-19T04:10:11.313Z,8.94
2023-02-19T04:11:11.589Z,8.94
2023-02-19T04:12:11.309Z,8.94
2023-02-19T04:13:11.294Z,8.96
2023-02-19T04:14:11.272Z,8.96
2023-02-19T04:15:11.251Z,8.96
2023-02-19T04:16:11.280Z,8.96
2023-02-19T04:17:11.232Z,8.96
2023-02-19T04:18:11.223Z,8.97
2023-02-19T04:19:11.203Z,8.99
2023-02-19T04:20:11.211Z,8.99
2023-02-19T04:21:11.458Z,8.99
2023-02-19T04:22:11.173Z,8.97
2023-02-19T04:23:11.162Z,8.99
2023-02-19T04:24:11.142Z,9.01
2023-02-19T04:25:11.127Z,9.01
2023-02-19T04:26:11.132Z,9.01
2023-02-19T04:27:11.092Z,9.02
2023-02-19T04:28:11.092Z,9.02
2023-02-19T04:29:11.080Z,9.01
2023-02-19T04:30:11.169Z,9.02
2023-02-19T04:31:11.438Z,9.02
2023-02-19T04:32:11.038Z,9.02
2023-02-19T04:33:11.021Z,9.01
2023-02-19T04:34:11.013Z,8.99
2023-02-19T04:35:10.979Z,9.01
2023-02-19T04:36:10.980Z,8.99
2023-02-19T04:37:10.977Z,9.01
2023-02-19T04:38:10.930Z,8.99
2023-02-19T04:39:10.936Z,9.01
2023-02-19T04:40:10.923Z,8.99
2023-02-19T04:41:11.148Z,8.99
2023-02-19T04:42:10.890Z,8.99
2023-02-19T04:43:10.872Z,8.99
2023-02-19T04:44:10.858Z,9.01
2023-02-19T04:45:10.856Z,9.01
2023-02-19T04:46:10.856Z,9.01
2023-02-19T04:47:10.837Z,9.01
2023-02-19T04:48:10.810Z,9.01
2023-02-19T04:49:10.817Z,9.02
2023-02-19T04:50:10.769Z,9.02
2023-02-19T04:51:11.055Z,9.02
2023-02-19T04:52:10.779Z,9.02
2023-02-19T04:53:10.750Z,9.02
2023-02-19T04:54:10.742Z,9.04
2023-02-19T04:55:10.722Z,9.04
2023-02-19T04:56:10.724Z,9.05
2023-02-19T04:57:10.695Z,9.05
2023-02-19T04:58:10.679Z,9.05
2023-02-19T04:59:10.669Z,9.05
2023-02-19T05:00:10.658Z,9.06
2023-02-19T05:01:11.136Z,9.06
2023-02-19T05:02:10.619Z,9.09
2023-02-19T05:03:10.618Z,9.06
2023-02-19T05:04:10.689Z,9.09
2023-02-19T05:05:10.579Z,9.09
2023-02-19T05:06:10.597Z,9.10
2023-02-19T05:07:10.550Z,9.09
2023-02-19T05:08:10.531Z,9.06
2023-02-19T05:09:10.529Z,9.09
2023-02-19T05:10:10.521Z,9.10
2023-02-19T05:11:10.800Z,9.10
2023-02-19T05:12:10.479Z,9.10
2023-02-19T05:13:10.485Z,9.10
2023-02-19T05:14:10.460Z,9.09
2023-02-19T05:15:10.475Z,9.09
2023-02-19T05:16:10.495Z,9.09
2023-02-19T05:17:10.423Z,9.09
2023-02-19T05:18:10.410Z,9.09
2023-02-19T05:19:10.410Z,9.09
2023-02-19T05:20:10.383Z,9.06
2023-02-19T05:21:10.726Z,9.09
2023-02-19T05:22:10.342Z,9.06
2023-02-19T05:23:10.342Z,9.06
2023-02-19T05:24:10.331Z,9.06
2023-02-19T05:25:10.314Z,9.06
2023-02-19T05:26:10.293Z,9.06
2023-02-19T05:27:10.312Z,9.06
2023-02-19T05:28:10.281Z,9.09
2023-02-19T05:29:10.274Z,9.09
2023-02-19T05:30:10.285Z,9.09
2023-02-19T05:31:10.653Z,9.09
2023-02-19T05:32:10.322Z,9.10
2023-02-19T05:33:10.201Z,9.10
2023-02-19T05:34:10.197Z,9.09
2023-02-19T05:35:10.171Z,9.09
2023-02-19T05:36:10.163Z,9.09
2023-02-19T05:37:10.172Z,9.10
2023-02-19T05:38:10.160Z,9.10
2023-02-19T05:39:10.132Z,9.10
2023-02-19T05:40:10.116Z,9.10
2023-02-19T05:41:10.359Z,9.10
2023-02-19T05:42:10.084Z,9.09
2023-02-19T05:43:10.072Z,9.10
2023-02-19T05:44:10.043Z,9.10
2023-02-19T05:45:10.057Z,9.09
2023-02-19T05:46:10.045Z,9.09
2023-02-19T05:47:10.034Z,9.09
2023-02-19T05:48:10.003Z,9.09
2023-02-19T05:49:10.019Z,9.09
2023-02-19T05:50:09.990Z,9.09
2023-02-19T05:51:10.328Z,9.10
2023-02-19T05:52:09.959Z,9.10
2023-02-19T05:53:09.936Z,9.12
2023-02-19T05:54:09.934Z,9.12
2023-02-19T05:55:09.918Z,9.10
2023-02-19T05:56:09.887Z,9.12
2023-02-19T05:57:09.893Z,9.12
2023-02-19T05:58:09.865Z,9.10
2023-02-19T05:59:09.864Z,9.12
2023-02-19T06:00:09.835Z,9.12
2023-02-19T06:01:10.128Z,9.12
2023-02-19T06:02:09.825Z,9.12
2023-02-19T06:03:09.807Z,9.10
2023-02-19T06:04:09.845Z,9.10
2023-02-19T06:05:09.785Z,9.13
2023-02-19T06:06:09.747Z,9.12
2023-02-19T06:07:09.745Z,9.12
2023-02-19T06:08:09.736Z,9.13
2023-02-19T06:09:09.733Z,9.13
2023-02-19T06:10:09.702Z,9.13
2023-02-19T06:11:09.953Z,9.15
2023-02-19T06:12:09.695Z,9.15
2023-02-19T06:13:09.696Z,9.15
2023-02-19T06:14:09.655Z,9.16
2023-02-19T06:15:09.636Z,9.15
2023-02-19T06:16:09.645Z,9.16
2023-02-19T06:17:09.625Z,9.16
2023-02-19T06:18:09.605Z,9.15
2023-02-19T06:19:09.605Z,9.15
2023-02-19T06:20:09.558Z,9.13
2023-02-19T06:21:09.828Z,9.12
2023-02-19T06:22:09.566Z,9.12
2023-02-19T06:23:09.538Z,9.10
2023-02-19T06:24:09.524Z,9.09
2023-02-19T06:25:09.499Z,9.06
2023-02-19T06:26:09.502Z,9.06
2023-02-19T06:27:09.503Z,9.06
2023-02-19T06:28:09.465Z,9.06
2023-02-19T06:29:09.468Z,9.05
2023-02-19T06:30:09.459Z,9.04
2023-02-19T06:31:09.873Z,9.04
2023-02-19T06:32:09.599Z,9.04
2023-02-19T06:33:09.413Z,9.04
2023-02-19T06:34:09.392Z,9.02
2023-02-19T06:35:09.372Z,9.01
2023-02-19T06:36:09.375Z,9.02
2023-02-19T06:37:09.363Z,9.01
2023-02-19T06:38:09.336Z,9.02
2023-02-19T06:39:09.323Z,9.02
2023-02-19T06:40:09.304Z,9.04
2023-02-19T06:41:09.713Z,9.04
2023-02-19T06:42:09.286Z,9.04
2023-02-19T06:43:09.277Z,9.02
2023-02-19T06:44:09.262Z,9.04
2023-02-19T06:45:09.243Z,9.04
2023-02-19T06:46:09.226Z,9.04
2023-02-19T06:47:09.230Z,9.04
2023-02-19T06:48:09.188Z,9.05
2023-02-19T06:49:09.197Z,9.06
2023-02-19T06:50:09.170Z,9.06
2023-02-19T06:51:09.526Z,9.09
2023-02-19T06:52:09.137Z,9.09
2023-02-19T06:53:09.136Z,9.06
2023-02-19T06:54:09.132Z,9.09
2023-02-19T06:55:09.106Z,9.10
2023-02-19T06:56:09.086Z,9.10
2023-02-19T06:57:09.089Z,9.12
2023-02-19T06:58:09.068Z,9.13
2023-02-19T06:59:09.051Z,9.15
2023-02-19T07:00:09.038Z,9.15
2023-02-19T07:01:09.600Z,9.15
2023-02-19T07:02:09.008Z,9.16
2023-02-19T07:03:09.005Z,9.18
2023-02-19T07:04:09.051Z,9.18
2023-02-19T07:05:08.966Z,9.21
2023-02-19T07:06:08.952Z,9.21
2023-02-19T07:07:08.936Z,9.20
2023-02-19T07:08:08.936Z,9.20
2023-02-19T07:09:08.914Z,9.20
2023-02-19T07:10:08.914Z,9.16
2023-02-19T07:11:16.421Z,9.16
2023-02-19T07:12:08.878Z,9.16
2023-02-19T07:13:08.888Z,9.13
2023-02-19T07:14:08.879Z,9.15
2023-02-19T07:15:08.829Z,9.16
2023-02-19T07:16:08.879Z,9.18
2023-02-19T07:17:08.818Z,9.20
2023-02-19T07:18:08.808Z,9.20
2023-02-19T07:19:08.814Z,9.21
2023-02-19T07:20:08.770Z,9.23
2023-02-19T07:21:09.047Z,9.23
2023-02-19T07:22:08.748Z,9.24
2023-02-19T07:23:08.745Z,9.24
2023-02-19T07:24:08.717Z,9.27
2023-02-19T07:25:08.709Z,9.27
2023-02-19T07:26:08.724Z,9.27
2023-02-19T07:27:08.686Z,9.27
2023-02-19T07:28:08.667Z,9.27
2023-02-19T07:29:08.660Z,9.28
2023-02-19T07:30:08.673Z,9.28
2023-02-19T07:31:08.789Z,9.30
2023-02-19T07:32:08.648Z,9.30
2023-02-19T07:33:10.455Z,9.34
2023-02-19T07:34:08.595Z,9.35
2023-02-19T07:35:08.577Z,9.40
2023-02-19T07:36:08.568Z,9.46
2023-02-19T07:37:08.555Z,9.48
2023-02-19T07:38:08.547Z,9.53
2023-02-19T07:39:10.124Z,9.56
2023-02-19T07:40:08.540Z,9.58
2023-02-19T07:41:08.634Z,9.61
2023-02-19T07:42:08.471Z,9.63
2023-02-19T07:43:08.505Z,9.61
2023-02-19T07:44:08.473Z,9.64
2023-02-19T07:45:08.456Z,9.64
2023-02-19T07:46:08.463Z,9.63
2023-02-19T07:47:08.433Z,9.64
2023-02-19T07:48:08.416Z,9.61
2023-02-19T07:49:08.402Z,9.63
2023-02-19T07:50:08.414Z,9.64
2023-02-19T07:51:08.532Z,9.63
2023-02-19T07:52:08.354Z,9.61
2023-02-19T07:53:08.346Z,9.60
2023-02-19T07:54:08.338Z,9.60
2023-02-19T07:55:08.317Z,9.60
2023-02-19T07:56:08.307Z,9.61
2023-02-19T07:57:08.293Z,9.61
2023-02-19T07:58:08.281Z,9.64
2023-02-19T07:59:08.276Z,9.64
2023-02-19T08:00:08.263Z,9.64
2023-02-19T08:01:08.362Z,9.64
2023-02-19T08:02:08.220Z,9.67
2023-02-19T08:03:08.249Z,9.64
2023-02-19T08:04:08.208Z,9.64
2023-02-19T08:05:08.203Z,9.67
2023-02-19T08:06:08.171Z,9.64
2023-02-19T08:07:08.158Z,9.66
2023-02-19T08:08:08.159Z,9.67
2023-02-19T08:09:08.138Z,9.67
2023-02-19T08:10:08.132Z,9.68
2023-02-19T08:11:08.412Z,9.68
2023-02-19T08:12:08.098Z,9.68
2023-02-19T08:13:08.078Z,9.71
2023-02-19T08:14:08.077Z,9.75
2023-02-19T08:15:08.067Z,9.73
2023-02-19T08:16:18.395Z,9.75
2023-02-19T08:17:09.094Z,9.79
2023-02-19T08:18:08.028Z,9.79
2023-02-19T08:19:08.030Z,9.76
2023-02-19T08:20:07.992Z,9.76
2023-02-19T08:21:08.229Z,9.73
2023-02-19T08:22:07.985Z,9.73
2023-02-19T08:23:07.965Z,9.75
2023-02-19T08:24:07.946Z,9.76
2023-02-19T08:25:07.947Z,9.75
2023-02-19T08:26:07.903Z,9.75
2023-02-19T08:27:07.894Z,9.75
2023-02-19T08:28:07.906Z,9.75
2023-02-19T08:29:07.903Z,9.73
2023-02-19T08:30:07.903Z,9.73
2023-02-19T08:31:07.984Z,9.73
2023-02-19T08:32:07.868Z,9.75
2023-02-19T08:33:07.842Z,9.75
2023-02-19T08:34:07.846Z,9.76
2023-02-19T08:35:07.802Z,9.78
2023-02-19T08:36:07.787Z,9.79
2023-02-19T08:37:07.776Z,9.81
2023-02-19T08:38:07.750Z,9.83
2023-02-19T08:39:07.784Z,9.82
2023-02-19T08:40:07.729Z,9.85
2023-02-19T08:41:07.752Z,9.86
2023-02-19T08:42:07.705Z,9.88
2023-02-19T08:43:07.708Z,9.91
2023-02-19T08:44:07.671Z,9.91
2023-02-19T08:45:07.681Z,9.94
2023-02-19T08:46:07.733Z,9.94
2023-02-19T08:47:07.638Z,9.94
2023-02-19T08:48:07.631Z,9.96
2023-02-19T08:49:07.615Z,9.97
2023-02-19T08:50:07.618Z,10.00
2023-02-19T08:51:07.581Z,10.01
2023-02-19T08:52:07.577Z,10.00
2023-02-19T08:53:07.552Z,10.01
2023-02-19T08:54:07.549Z,10.00
2023-02-19T08:55:07.528Z,10.03
2023-02-19T08:56:07.548Z,10.03
2023-02-19T08:57:07.495Z,10.03
2023-02-19T08:58:07.497Z,10.06
2023-02-19T08:59:07.482Z,10.06
2023-02-19T09:00:07.497Z,10.06
2023-02-19T09:01:07.467Z,10.06
2023-02-19T09:02:07.438Z,10.09
2023-02-19T09:03:07.441Z,10.10
2023-02-19T09:04:07.422Z,10.09
2023-02-19T09:05:07.445Z,10.09
2023-02-19T09:06:07.573Z,10.09
2023-02-19T09:07:07.368Z,10.10
2023-02-19T09:08:07.359Z,10.12
2023-02-19T09:09:07.346Z,10.14
2023-02-19T09:10:07.389Z,10.12
2023-02-19T09:11:07.365Z,10.15
2023-02-19T09:12:07.317Z,10.14
2023-02-19T09:13:07.306Z,10.18
2023-02-19T09:14:07.294Z,10.18
2023-02-19T09:15:07.299Z,10.21
2023-02-19T09:16:07.302Z,10.18
2023-02-19T09:17:07.240Z,10.21
2023-02-19T09:18:07.235Z,10.21
2023-02-19T09:19:07.223Z,10.21
2023-02-19T09:20:07.215Z,10.24
2023-02-19T09:21:07.184Z,10.30
2023-02-19T09:22:07.173Z,10.33
2023-02-19T09:23:07.153Z,10.40
2023-02-19T09:24:07.166Z,10.40
2023-02-19T09:25:07.152Z,10.40
2023-02-19T09:26:07.140Z,10.36
2023-02-19T09:27:07.119Z,10.36
2023-02-19T09:28:07.098Z,10.32
2023-02-19T09:29:07.104Z,10.24
2023-02-19T09:30:07.127Z,10.22
2023-02-19T09:31:07.175Z,10.22
2023-02-19T09:32:07.078Z,10.22
2023-02-19T09:33:07.033Z,10.18
2023-02-19T09:34:07.032Z,10.18
2023-02-19T09:35:07.015Z,10.18
2023-02-19T09:36:07.019Z,10.18
2023-02-19T09:37:06.985Z,10.15
2023-02-19T09:38:06.987Z,10.15
2023-02-19T09:39:06.959Z,10.17
2023-02-19T09:40:06.957Z,10.15
2023-02-19T09:41:06.975Z,10.14
2023-02-19T09:42:06.979Z,10.15
2023-02-19T09:43:06.910Z,10.12
2023-02-19T09:44:06.908Z,10.09
2023-02-19T09:45:06.890Z,10.07
2023-02-19T09:46:06.925Z,10.10
2023-02-19T09:47:06.857Z,10.10
2023-02-19T10:03:28.141Z,10.07
2023-02-19T10:04:28.137Z,10.06
2023-02-19T10:05:28.151Z,10.06
2023-02-19T10:06:28.115Z,10.04
2023-02-19T10:07:28.064Z,10.03
2023-02-19T10:08:28.062Z,10.01
2023-02-19T10:09:28.043Z,10.01
2023-02-19T10:10:28.087Z,10.03
2023-02-19T10:11:28.010Z,10.06
2023-02-19T10:12:28.025Z,10.03
2023-02-19T10:13:28.002Z,10.07
2023-02-19T10:14:28.021Z,10.10
2023-02-19T10:15:28.004Z,10.12
2023-02-19T10:16:27.961Z,10.17
2023-02-19T10:17:27.946Z,10.17
2023-02-19T10:18:27.925Z,10.14
2023-02-19T10:19:27.905Z,10.15
2023-02-19T10:20:27.984Z,10.15
2023-02-19T10:21:27.886Z,10.14
2023-02-19T10:22:27.886Z,10.12
2023-02-19T10:23:27.875Z,10.09
2023-02-19T10:24:27.877Z,10.09
2023-02-19T10:25:27.843Z,10.10
2023-02-19T10:26:27.838Z,10.09
2023-02-19T10:27:27.800Z,10.10
2023-02-19T10:28:27.804Z,10.10
2023-02-19T10:29:27.792Z,10.14
2023-02-19T10:30:27.806Z,10.15
2023-02-19T10:31:27.811Z,10.15
2023-02-19T10:32:27.744Z,10.17
2023-02-19T10:33:27.726Z,10.17
2023-02-19T10:34:27.797Z,10.18
2023-02-19T10:35:27.768Z,10.21
2023-02-19T10:36:29.843Z,10.22
2023-02-19T10:37:27.672Z,10.25
2023-02-19T10:38:27.671Z,10.28
2023-02-19T10:39:27.665Z,10.30
2023-02-19T10:40:27.659Z,10.30
2023-02-19T10:41:27.668Z,10.28
2023-02-19T10:42:27.624Z,10.28
2023-02-19T10:43:27.632Z,10.25
2023-02-19T10:44:27.654Z,10.26
2023-02-19T10:45:27.583Z,10.26
2023-02-19T10:46:27.670Z,10.26
2023-02-19T10:47:27.567Z,10.28
2023-02-19T10:48:27.548Z,10.28
2023-02-19T10:49:27.529Z,10.26
2023-02-19T10:50:27.538Z,10.25
2023-02-19T10:51:27.488Z,10.25
2023-02-19T10:52:27.479Z,10.26
2023-02-19T10:53:27.476Z,10.28
2023-02-19T10:54:27.523Z,10.26
2023-02-19T10:55:27.466Z,10.30
2023-02-19T10:56:27.432Z,10.28
2023-02-19T10:57:27.406Z,10.26
2023-02-19T10:58:27.410Z,10.26
2023-02-19T10:59:27.393Z,10.26
2023-02-19T11:00:27.440Z,10.22
2023-02-19T11:01:27.399Z,10.19
2023-02-19T11:02:27.353Z,10.10
2023-02-19T11:03:27.347Z,10.04
2023-02-19T11:04:27.442Z,10.00
2023-02-19T11:05:27.325Z,9.97
2023-02-19T11:06:27.309Z,9.91
2023-02-19T11:07:27.333Z,9.88
2023-02-19T11:08:27.301Z,9.85
2023-02-19T11:09:27.281Z,9.82
2023-02-19T11:10:27.344Z,9.78
2023-02-19T11:11:27.263Z,9.76
2023-02-19T11:12:27.348Z,9.73
2023-02-19T11:13:27.216Z,9.75
2023-02-19T11:14:27.311Z,9.75
2023-02-19T11:15:27.275Z,9.78
2023-02-19T11:16:27.261Z,9.79
2023-02-19T11:17:27.182Z,9.78
2023-02-19T11:18:27.152Z,9.78
2023-02-19T11:19:27.167Z,9.75
2023-02-19T11:20:27.109Z,9.76
2023-02-19T11:21:27.215Z,9.78
2023-02-19T11:22:27.121Z,9.78
2023-02-19T11:23:27.215Z,9.79
2023-02-19T11:24:27.166Z,9.75
2023-02-19T11:25:27.234Z,9.71
2023-02-19T11:26:27.034Z,9.63
2023-02-19T11:27:27.111Z,9.50
2023-02-19T11:28:27.002Z,9.48
2023-02-19T11:29:27.016Z,9.39
2023-02-19T11:30:27.059Z,9.38
2023-02-19T11:31:27.102Z,9.38
2023-02-19T11:32:27.056Z,9.39
2023-02-19T11:33:27.073Z,9.38
2023-02-19T11:34:26.956Z,9.38
2023-02-19T11:35:27.103Z,9.38
2023-02-19T11:36:29.838Z,9.40
2023-02-19T11:37:26.957Z,9.40
2023-02-19T11:38:26.869Z,9.42
2023-02-19T11:39:26.887Z,9.43
2023-02-19T11:40:26.848Z,9.46
2023-02-19T11:41:26.834Z,9.50
2023-02-19T11:42:29.242Z,9.50
2023-02-19T11:43:26.826Z,9.49
2023-02-19T11:44:26.805Z,9.46
2023-02-19T11:45:26.835Z,9.45
2023-02-19T11:46:26.818Z,9.42
2023-02-19T11:47:26.768Z,9.35
2023-02-19T11:48:27.293Z,9.39
2023-02-19T11:49:26.740Z,9.39
2023-02-19T11:50:26.724Z,9.35
2023-02-19T11:51:26.701Z,9.35
2023-02-19T11:52:26.696Z,9.38
2023-02-19T11:53:26.713Z,9.38
2023-02-19T11:54:26.707Z,9.39
2023-02-19T11:55:26.671Z,9.38
2023-02-19T11:56:26.652Z,9.38
2023-02-19T11:57:26.644Z,9.35
2023-02-19T11:58:26.613Z,9.35
2023-02-19T11:59:26.609Z,9.35
2023-02-19T12:00:26.610Z,9.35
2023-02-19T12:01:26.580Z,9.35
2023-02-19T12:02:26.571Z,9.39
2023-02-19T12:03:26.540Z,9.40
2023-02-19T12:04:26.637Z,9.45
2023-02-19T12:05:26.597Z,9.48
2023-02-19T12:06:26.486Z,9.50
2023-02-19T12:07:26.522Z,9.57
2023-02-19T12:08:26.459Z,9.58
2023-02-19T12:09:26.515Z,9.61
2023-02-19T12:10:26.641Z,9.61
2023-02-19T12:11:26.464Z,9.61
2023-02-19T12:12:26.422Z,9.64
2023-02-19T12:13:26.398Z,9.61
2023-02-19T12:14:26.400Z,9.60
2023-02-19T12:15:26.379Z,9.60
2023-02-19T12:16:26.425Z,9.61
2023-02-19T12:17:26.350Z,9.60
2023-02-19T12:18:26.337Z,9.60
2023-02-19T12:19:26.341Z,9.60
2023-02-19T12:20:26.335Z,9.61
2023-02-19T12:21:26.301Z,9.66
2023-02-19T12:22:26.299Z,9.73
2023-02-19T12:23:26.286Z,9.85
2023-02-19T12:24:26.261Z,10.04
2023-02-19T12:25:26.267Z,10.15
2023-02-19T12:26:26.245Z,10.22
2023-02-19T12:27:26.222Z,10.33
2023-02-19T12:28:26.203Z,10.52
2023-02-19T12:29:26.207Z,10.78
2023-02-19T12:30:26.225Z,10.96
2023-02-19T12:31:26.312Z,10.98
2023-02-19T12:32:26.164Z,10.91
2023-02-19T12:33:26.150Z,10.77
2023-02-19T12:34:26.134Z,10.73
2023-02-19T12:35:26.146Z,10.62
2023-02-19T12:36:26.116Z,10.59
2023-02-19T12:37:26.103Z,10.51
2023-02-19T12:38:26.111Z,10.37
2023-02-19T12:39:26.064Z,10.32
2023-02-19T12:40:26.055Z,10.22
2023-02-19T12:41:26.041Z,10.17
2023-02-19T12:42:26.031Z,10.14
2023-02-19T12:43:26.038Z,10.18
2023-02-19T12:44:26.029Z,10.22
2023-02-19T12:45:26.005Z,10.25
2023-02-19T12:46:26.016Z,10.25
2023-02-19T12:47:25.986Z,10.21
2023-02-19T12:48:25.964Z,10.22
2023-02-19T12:49:25.945Z,10.18
2023-02-19T12:50:25.973Z,10.24
2023-02-19T12:51:25.933Z,10.26
2023-02-19T12:52:25.899Z,10.33
2023-02-19T12:53:25.899Z,10.28
2023-02-19T12:54:25.873Z,10.28
2023-02-19T12:55:25.915Z,10.28
2023-02-19T12:56:25.885Z,10.24
2023-02-19T12:57:25.844Z,10.22
2023-02-19T12:58:25.847Z,10.22
2023-02-19T12:59:25.818Z,10.24
2023-02-19T13:00:25.860Z,10.33
2023-02-19T13:01:25.849Z,10.51
2023-02-19T13:02:25.818Z,10.60
2023-02-19T13:03:25.769Z,10.76
2023-02-19T13:04:25.740Z,10.91
2023-02-19T13:05:25.779Z,10.94
2023-02-19T13:06:25.723Z,10.92
2023-02-19T13:07:25.743Z,10.76
2023-02-19T13:08:25.691Z,10.70
2023-02-19T13:09:25.682Z,10.59
2023-02-19T13:10:25.675Z,10.55
2023-02-19T13:11:25.659Z,10.53
2023-02-19T13:12:25.643Z,10.52
2023-02-19T13:13:25.632Z,10.51
2023-02-19T13:14:25.641Z,10.47
2023-02-19T13:15:25.634Z,10.51
2023-02-19T13:16:25.610Z,10.51
2023-02-19T13:17:25.576Z,10.44
2023-02-19T13:18:25.571Z,10.34
2023-02-19T13:19:25.557Z,10.25
2023-02-19T13:20:25.585Z,10.19
2023-02-19T13:21:25.535Z,10.21
2023-02-19T13:22:25.514Z,10.18
2023-02-19T13:23:25.506Z,10.21
2023-02-19T13:24:25.475Z,10.18
2023-02-19T13:25:25.561Z,10.19
2023-02-19T13:26:25.457Z,10.19
2023-02-19T13:27:25.449Z,10.21
2023-02-19T13:28:25.445Z,10.22
2023-02-19T13:29:25.448Z,10.21
2023-02-19T13:30:25.484Z,10.19
2023-02-19T13:31:25.502Z,10.17
2023-02-19T13:32:25.380Z,10.15
2023-02-19T13:33:25.368Z,10.10
2023-02-19T13:34:25.377Z,10.09
2023-02-19T13:35:25.354Z,10.04
2023-02-19T13:36:25.323Z,10.04
2023-02-19T13:37:25.364Z,10.04
2023-02-19T13:38:25.319Z,10.04
2023-02-19T13:39:25.295Z,10.10